createdAt,value
2019-03-19T00:00:51.140Z,3.00
2019-03-19T00:03:18.508Z,2.90
2019-03-19T00:05:45.863Z,2.80
2019-03-19T00:08:13.230Z,2.90
2019-03-19T00:10:40.496Z,2.90
2019-03-19T00:13:07.863Z,2.70
2019-03-19T00:15:35.215Z,2.60
2019-03-19T00:18:02.720Z,2.40
2019-03-19T00:20:30.068Z,2.40
2019-03-19T00:22:57.406Z,2.30
2019-03-19T00:25:29.924Z,2.30
2019-03-19T00:27:54.079Z,2.30
2019-03-19T00:30:21.581Z,2.20
2019-03-19T00:32:49.050Z,2.30
2019-03-19T00:35:16.449Z,2.30
2019-03-19T00:37:43.798Z,2.30
2019-03-19T00:40:11.274Z,2.40
2019-03-19T00:42:38.632Z,2.50
2019-03-19T00:45:06.631Z,2.60
2019-03-19T00:47:34.047Z,2.50
2019-03-19T00:50:01.309Z,2.40
2019-03-19T00:52:28.646Z,2.30
2019-03-19T00:54:56.063Z,2.10
2019-03-19T00:57:23.455Z,2.10
2019-03-19T00:59:50.823Z,2.10
2019-03-19T01:02:18.215Z,2.00
2019-03-19T01:04:45.603Z,2.10
2019-03-19T01:07:12.948Z,2.00
2019-03-19T01:09:40.339Z,2.00
2019-03-19T01:12:07.724Z,1.90
2019-03-19T01:14:35.110Z,1.90
2019-03-19T01:17:02.517Z,2.00
2019-03-19T01:19:29.911Z,2.10
2019-03-19T01:21:57.262Z,2.20
2019-03-19T01:24:24.534Z,2.20
2019-03-19T01:26:51.923Z,2.20
2019-03-19T01:29:19.288Z,2.40
2019-03-19T01:31:46.644Z,2.30
2019-03-19T01:34:14.027Z,2.10
2019-03-19T01:36:41.378Z,2.00
2019-03-19T01:39:08.625Z,2.10
2019-03-19T01:41:35.995Z,2.20
2019-03-19T01:44:03.392Z,2.30
2019-03-19T01:46:30.767Z,2.30
2019-03-19T01:48:58.113Z,2.20
2019-03-19T01:51:25.350Z,2.40
2019-03-19T01:53:52.596Z,2.40
2019-03-19T01:56:19.960Z,2.40
2019-03-19T01:58:47.206Z,2.50
2019-03-19T02:01:14.464Z,2.40
2019-03-19T02:03:41.822Z,2.50
2019-03-19T02:06:09.079Z,2.40
2019-03-19T02:08:36.479Z,2.30
2019-03-19T02:11:03.787Z,2.50
2019-03-19T02:13:31.031Z,2.40
2019-03-19T02:15:58.279Z,2.40
2019-03-19T02:18:25.650Z,2.40
2019-03-19T02:20:53.340Z,2.30
2019-03-19T02:23:20.622Z,2.50
2019-03-19T02:25:48.111Z,2.40
2019-03-19T02:28:15.551Z,2.30
2019-03-19T02:30:43.032Z,2.40
2019-03-19T02:33:10.503Z,2.40
2019-03-19T02:35:37.882Z,2.40
2019-03-19T02:38:05.439Z,2.30
2019-03-19T02:40:32.926Z,2.10
2019-03-19T02:43:00.339Z,2.10
2019-03-19T02:45:27.882Z,1.90
2019-03-19T02:47:55.571Z,2.10
2019-03-19T02:50:23.193Z,2.10
2019-03-19T02:52:50.596Z,2.10
2019-03-19T02:55:17.955Z,2.30
2019-03-19T02:57:45.441Z,2.40
2019-03-19T03:00:13.079Z,2.40
2019-03-19T03:02:40.481Z,2.50
2019-03-19T03:05:09.988Z,2.40
2019-03-19T03:07:37.377Z,2.40
2019-03-19T03:10:05.159Z,2.40
2019-03-19T03:12:32.824Z,2.40
2019-03-19T03:15:00.426Z,2.40
2019-03-19T03:17:28.159Z,2.30
2019-03-19T03:19:55.490Z,2.40
2019-03-19T03:22:22.825Z,2.50
2019-03-19T03:24:50.114Z,2.20
2019-03-19T03:27:17.766Z,2.10
2019-03-19T03:29:45.272Z,2.10
2019-03-19T03:32:12.640Z,2.20
2019-03-19T03:34:40.137Z,2.20
2019-03-19T03:37:07.615Z,2.20
2019-03-19T03:39:35.010Z,2.20
2019-03-19T03:42:02.273Z,2.20
2019-03-19T03:44:29.736Z,2.10
2019-03-19T03:46:57.023Z,2.10
2019-03-19T03:49:24.295Z,2.10
2019-03-19T03:51:51.681Z,2.00
2019-03-19T03:54:19.052Z,1.90
2019-03-19T03:57:00.781Z,1.90
2019-03-19T03:59:15.692Z,1.80
2019-03-19T04:01:43.151Z,1.70
2019-03-19T04:04:10.569Z,1.70
2019-03-19T04:06:37.853Z,1.90
2019-03-19T04:09:09.161Z,1.80
2019-03-19T04:11:35.407Z,1.80
2019-03-19T04:14:02.684Z,2.00
2019-03-19T04:16:30.148Z,2.10
2019-03-19T04:18:57.566Z,2.00
2019-03-19T04:21:25.031Z,1.90
2019-03-19T04:23:52.411Z,1.90
2019-03-19T04:26:19.770Z,1.80
2019-03-19T04:28:50.460Z,1.80
2019-03-19T04:31:17.861Z,1.70
2019-03-19T04:33:45.115Z,1.70
2019-03-19T04:36:12.519Z,1.70
2019-03-19T04:38:39.964Z,1.40
2019-03-19T04:41:07.320Z,1.40
2019-03-19T04:43:34.664Z,1.40
2019-03-19T04:46:01.951Z,1.40
2019-03-19T04:48:29.199Z,1.30
2019-03-19T04:50:56.654Z,1.30
2019-03-19T04:53:24.375Z,1.20
2019-03-19T04:55:51.955Z,1.20
2019-03-19T04:58:19.192Z,1.20
2019-03-19T05:00:46.677Z,1.00
2019-03-19T05:03:14.129Z,0.90
2019-03-19T05:05:41.463Z,0.90
2019-03-19T05:08:08.828Z,1.10
2019-03-19T05:10:36.072Z,1.10
2019-03-19T05:13:03.589Z,1.10
2019-03-19T05:15:31.091Z,0.90
2019-03-19T05:17:58.456Z,0.90
2019-03-19T05:20:25.735Z,0.90
2019-03-19T05:22:53.160Z,0.90
2019-03-19T05:25:20.538Z,0.90
2019-03-19T05:27:47.810Z,0.90
2019-03-19T05:30:15.209Z,0.90
2019-03-19T05:32:42.687Z,1.00
2019-03-19T05:35:10.519Z,0.90
2019-03-19T05:37:38.196Z,0.90
2019-03-19T05:40:06.134Z,1.00
2019-03-19T05:42:33.399Z,1.00
2019-03-19T05:45:00.828Z,1.10
2019-03-19T05:47:36.733Z,1.10
2019-03-19T05:49:57.579Z,1.20
2019-03-19T05:52:25.009Z,1.10
2019-03-19T05:54:52.449Z,1.10
2019-03-19T05:57:19.878Z,1.00
2019-03-19T05:59:47.287Z,1.10
2019-03-19T06:02:14.811Z,1.20
2019-03-19T06:04:42.267Z,1.30
2019-03-19T06:07:09.683Z,1.40
2019-03-19T06:09:37.159Z,1.40
2019-03-19T06:12:04.559Z,1.60
2019-03-19T06:14:31.926Z,1.80
2019-03-19T06:16:59.427Z,2.00
2019-03-19T06:19:26.823Z,2.10
2019-03-19T06:21:56.610Z,2.40
2019-03-19T06:24:23.482Z,3.10
2019-03-19T06:26:50.932Z,3.90
2019-03-19T06:29:18.327Z,4.60
2019-03-19T06:31:45.734Z,5.00
2019-03-19T06:34:13.238Z,5.40
2019-03-19T06:36:40.627Z,5.70
2019-03-19T06:39:08.071Z,6.50
2019-03-19T06:41:35.475Z,7.20
2019-03-19T06:44:02.928Z,7.90
2019-03-19T06:46:30.452Z,8.10
2019-03-19T06:48:57.874Z,8.30
2019-03-19T06:51:25.261Z,8.60
2019-03-19T06:53:52.638Z,8.60
2019-03-19T06:56:20.058Z,8.60
2019-03-19T06:58:47.474Z,8.60
2019-03-19T07:01:17.305Z,9.00
2019-03-19T07:03:44.072Z,8.80
2019-03-19T07:06:11.404Z,9.30
2019-03-19T07:08:38.827Z,9.30
2019-03-19T07:11:06.250Z,8.90
2019-03-19T07:13:33.728Z,8.80
2019-03-19T07:16:01.087Z,8.60
2019-03-19T07:18:28.463Z,9.20
2019-03-19T07:20:55.856Z,9.10
2019-03-19T07:23:23.195Z,9.20
2019-03-19T07:25:50.614Z,9.40
2019-03-19T07:28:21.934Z,8.70
2019-03-19T07:30:47.484Z,8.80
2019-03-19T07:33:14.978Z,8.60
2019-03-19T07:35:42.277Z,9.10
2019-03-19T07:38:09.514Z,9.20
2019-03-19T07:47:39.558Z,8.80
2019-03-19T07:50:08.296Z,8.30
2019-03-19T07:52:35.751Z,8.30
2019-03-19T07:55:03.732Z,8.40
2019-03-19T07:57:31.204Z,8.60
2019-03-19T07:59:58.643Z,8.20
2019-03-19T08:02:26.089Z,8.30
2019-03-19T08:04:53.565Z,8.30
2019-03-19T08:07:20.797Z,8.20
2019-03-19T08:09:48.038Z,8.10
2019-03-19T08:12:15.422Z,8.10
2019-03-19T08:14:42.824Z,8.00
2019-03-19T08:17:10.161Z,8.20
2019-03-19T08:19:37.385Z,8.30
2019-03-19T08:22:04.680Z,8.40
2019-03-19T08:24:32.172Z,8.50
2019-03-19T08:26:59.370Z,8.50
2019-03-19T08:29:26.593Z,8.80
2019-03-19T08:31:53.803Z,9.00
2019-03-19T08:34:21.018Z,9.10
2019-03-19T08:36:48.256Z,9.20
2019-03-19T08:39:15.603Z,9.50
2019-03-19T08:41:42.859Z,9.70
2019-03-19T08:44:10.193Z,9.70
2019-03-19T08:46:37.428Z,9.60
2019-03-19T08:49:04.708Z,10.00
2019-03-19T08:51:31.917Z,10.00
2019-03-19T08:53:59.157Z,10.30
2019-03-19T08:56:26.410Z,10.40
2019-03-19T08:58:53.841Z,10.00
2019-03-19T09:01:21.057Z,9.70
2019-03-19T09:03:48.505Z,9.40
2019-03-19T09:06:15.830Z,8.80
2019-03-19T09:08:43.149Z,8.00
2019-03-19T09:11:10.370Z,7.90
2019-03-19T09:13:37.593Z,8.00
2019-03-19T09:16:04.920Z,8.40
2019-03-19T09:18:32.137Z,8.90
2019-03-19T09:20:59.534Z,9.60
2019-03-19T09:23:26.790Z,10.10
2019-03-19T09:25:54.022Z,10.30
2019-03-19T09:28:23.080Z,10.30
2019-03-19T09:30:50.577Z,10.40
2019-03-19T09:33:17.805Z,9.80
2019-03-19T09:35:45.113Z,9.40
2019-03-19T09:38:12.333Z,9.30
2019-03-19T09:40:39.537Z,9.40
2019-03-19T09:43:06.864Z,9.70
2019-03-19T09:45:34.068Z,9.90
2019-03-19T09:48:01.268Z,10.10
2019-03-19T09:50:28.468Z,10.40
2019-03-19T09:52:55.830Z,10.50
2019-03-19T09:55:23.029Z,10.20
2019-03-19T09:57:50.348Z,10.10
2019-03-19T10:00:17.652Z,9.90
2019-03-19T10:02:45.000Z,10.20
2019-03-19T10:05:12.338Z,10.10
2019-03-19T10:07:39.540Z,9.60
2019-03-19T10:10:07.764Z,8.90
2019-03-19T10:12:35.014Z,8.80
2019-03-19T10:15:02.320Z,8.90
2019-03-19T10:17:29.640Z,9.00
2019-03-19T10:19:56.842Z,8.80
2019-03-19T10:22:24.094Z,9.00
2019-03-19T10:24:51.361Z,8.90
2019-03-19T10:27:19.623Z,8.90
2019-03-19T10:29:47.294Z,9.10
2019-03-19T10:32:14.614Z,9.40
2019-03-19T10:34:41.849Z,9.60
2019-03-19T10:37:09.197Z,9.80
2019-03-19T10:39:36.522Z,9.60
2019-03-19T10:42:03.778Z,9.90
2019-03-19T10:44:30.985Z,10.00
2019-03-19T10:46:58.200Z,10.50
2019-03-19T10:49:25.609Z,10.90
2019-03-19T10:51:52.841Z,10.90
2019-03-19T10:54:20.105Z,10.40
2019-03-19T10:56:47.367Z,10.40
2019-03-19T10:59:14.796Z,10.20
2019-03-19T11:01:42.189Z,10.10
2019-03-19T11:04:09.544Z,9.60
2019-03-19T11:06:36.835Z,9.40
2019-03-19T11:09:06.322Z,8.90
2019-03-19T11:11:34.736Z,8.90
2019-03-19T11:14:01.972Z,8.90
2019-03-19T11:16:29.165Z,9.00
2019-03-19T11:18:56.457Z,9.00
2019-03-19T11:21:23.874Z,8.90
2019-03-19T11:23:51.130Z,8.90
2019-03-19T11:26:18.513Z,8.90
2019-03-19T11:28:52.121Z,8.60
2019-03-19T11:31:19.338Z,8.10
2019-03-19T11:33:47.718Z,8.00
2019-03-19T11:36:15.185Z,8.20
2019-03-19T11:38:42.458Z,8.50
2019-03-19T11:41:09.803Z,8.30
2019-03-19T11:43:37.137Z,8.40
2019-03-19T11:46:04.526Z,8.50
2019-03-19T11:48:31.830Z,8.50
2019-03-19T11:50:59.084Z,8.40
2019-03-19T11:53:26.268Z,8.40
2019-03-19T11:55:53.492Z,8.50
2019-03-19T11:58:20.731Z,8.50
2019-03-19T12:00:51.759Z,8.50
2019-03-19T12:03:21.083Z,8.50
2019-03-19T12:05:48.428Z,8.40
2019-03-19T12:08:15.625Z,8.20
2019-03-19T12:10:42.874Z,8.10
2019-03-19T12:13:10.133Z,8.30
2019-03-19T12:15:37.599Z,8.40
2019-03-19T12:18:05.106Z,8.40
2019-03-19T12:20:32.385Z,8.50
2019-03-19T12:22:59.728Z,8.80
2019-03-19T12:25:27.057Z,9.10
2019-03-19T12:27:54.334Z,9.60
2019-03-19T12:30:24.806Z,9.50
2019-03-19T12:32:51.104Z,8.90
2019-03-19T12:35:20.027Z,8.40
2019-03-19T12:37:47.294Z,8.10
2019-03-19T12:40:14.509Z,8.10
2019-03-19T12:42:41.764Z,8.30
2019-03-19T12:45:10.705Z,8.60
2019-03-19T12:47:37.941Z,8.80
2019-03-19T12:50:07.314Z,8.90
2019-03-19T12:52:34.517Z,8.90
2019-03-19T12:55:01.729Z,9.10
2019-03-19T12:57:28.962Z,9.70
2019-03-19T12:59:56.278Z,9.90
2019-03-19T13:02:23.658Z,9.80
2019-03-19T13:04:50.885Z,9.80
2019-03-19T13:07:18.330Z,9.60
2019-03-19T13:09:45.681Z,9.00
2019-03-19T13:12:13.067Z,8.80
2019-03-19T13:14:40.285Z,8.90
2019-03-19T13:17:07.513Z,9.00
2019-03-19T13:19:34.924Z,9.10
2019-03-19T13:22:02.165Z,8.80
2019-03-19T13:24:29.398Z,8.50
2019-03-19T13:26:56.620Z,8.50
2019-03-19T13:29:23.824Z,8.60
2019-03-19T13:31:51.136Z,8.60
2019-03-19T13:34:18.476Z,8.80
2019-03-19T13:36:45.684Z,8.90
2019-03-19T13:39:12.892Z,9.00
2019-03-19T13:41:40.125Z,8.80
2019-03-19T13:44:07.471Z,9.00
2019-03-19T13:46:34.805Z,9.10
2019-03-19T13:49:02.220Z,9.20
2019-03-19T13:51:29.471Z,9.10
2019-03-19T13:53:56.668Z,8.70
2019-03-19T13:56:23.888Z,8.70
2019-03-19T13:58:51.129Z,8.90
2019-03-19T14:01:18.343Z,8.90
2019-03-19T14:03:45.732Z,8.80
2019-03-19T14:06:12.972Z,8.90
2019-03-19T14:08:40.198Z,8.90
2019-03-19T14:11:07.401Z,9.00
2019-03-19T14:13:34.636Z,9.00
2019-03-19T14:16:01.859Z,9.00
2019-03-19T14:18:29.082Z,9.10
2019-03-19T14:20:56.273Z,9.00
2019-03-19T14:23:23.496Z,9.10
2019-03-19T14:25:50.713Z,9.00
2019-03-19T14:28:19.693Z,9.00
2019-03-19T14:30:47.053Z,9.00
2019-03-19T14:33:14.265Z,8.80
2019-03-19T14:35:41.494Z,8.70
2019-03-19T14:38:08.737Z,8.80
2019-03-19T14:40:35.950Z,8.80
2019-03-19T14:43:03.276Z,8.60
2019-03-19T14:45:30.492Z,8.40
2019-03-19T14:47:57.737Z,8.10
2019-03-19T14:50:24.986Z,7.90
2019-03-19T14:52:52.213Z,7.90
2019-03-19T14:55:19.635Z,7.90
2019-03-19T14:57:46.823Z,7.90
2019-03-19T15:00:15.174Z,7.90
2019-03-19T15:02:42.499Z,8.00
2019-03-19T15:05:10.194Z,8.10
2019-03-19T15:07:37.413Z,8.20
2019-03-19T15:10:06.790Z,8.10
2019-03-19T15:12:34.018Z,8.20
2019-03-19T15:15:01.400Z,8.30
2019-03-19T15:17:28.665Z,8.20
2019-03-19T15:19:55.910Z,8.30
2019-03-19T15:22:32.078Z,8.20
2019-03-19T15:24:52.307Z,8.20
2019-03-19T15:27:19.509Z,8.10
2019-03-19T15:29:46.915Z,8.10
2019-03-19T15:32:14.162Z,8.30
2019-03-19T15:34:41.393Z,8.40
2019-03-19T15:37:08.633Z,8.30
2019-03-19T15:39:35.863Z,8.30
2019-03-19T15:42:03.065Z,8.40
2019-03-19T15:44:30.303Z,8.50
2019-03-19T15:46:57.522Z,8.60
2019-03-19T15:49:24.725Z,8.50
2019-03-19T15:51:51.922Z,8.60
2019-03-19T15:54:19.151Z,8.50
2019-03-19T15:56:46.564Z,8.60
2019-03-19T15:59:13.768Z,8.50
2019-03-19T16:01:41.018Z,8.30
2019-03-19T16:04:08.213Z,8.30
2019-03-19T16:06:35.493Z,8.20
2019-03-19T16:09:06.045Z,7.90
2019-03-19T16:11:33.366Z,7.70
2019-03-19T16:14:00.577Z,7.40
2019-03-19T16:16:28.157Z,7.40
2019-03-19T16:18:55.453Z,7.40
2019-03-19T16:21:22.701Z,7.40
2019-03-19T16:23:49.931Z,7.30
2019-03-19T16:26:17.141Z,7.20
2019-03-19T16:28:44.705Z,7.30
2019-03-19T16:31:12.058Z,7.30
2019-03-19T16:33:39.289Z,7.30
2019-03-19T16:36:06.498Z,7.40
2019-03-19T16:38:33.797Z,7.30
2019-03-19T16:41:01.128Z,7.20
2019-03-19T16:43:28.344Z,7.20
2019-03-19T16:45:55.553Z,7.10
2019-03-19T16:48:22.908Z,7.10
2019-03-19T16:50:50.175Z,7.00
2019-03-19T16:53:17.404Z,6.90
2019-03-19T16:55:44.602Z,6.90
2019-03-19T16:58:11.823Z,6.80
2019-03-19T17:00:39.040Z,6.70
2019-03-19T17:03:06.260Z,6.60
2019-03-19T17:05:33.494Z,6.50
2019-03-19T17:08:00.808Z,6.30
2019-03-19T17:10:28.022Z,6.20
2019-03-19T17:12:55.243Z,6.10
2019-03-19T17:15:22.526Z,6.10
2019-03-19T17:17:49.752Z,6.00
2019-03-19T17:20:16.989Z,6.00
2019-03-19T17:22:44.440Z,6.00
2019-03-19T17:25:12.686Z,6.00
2019-03-19T17:27:39.911Z,5.90
2019-03-19T17:30:11.605Z,5.80
2019-03-19T17:32:38.845Z,5.80
2019-03-19T17:35:06.154Z,5.80
2019-03-19T17:37:33.397Z,5.80
2019-03-19T17:40:00.621Z,5.70
2019-03-19T17:42:27.860Z,5.70
2019-03-19T17:44:55.163Z,5.70
2019-03-19T17:47:22.365Z,5.70
2019-03-19T17:49:49.605Z,5.70
2019-03-19T17:52:16.948Z,5.60
2019-03-19T17:54:44.188Z,5.60
2019-03-19T17:57:11.397Z,5.70
2019-03-19T17:59:38.624Z,5.50
2019-03-19T18:02:06.688Z,5.30
2019-03-19T18:04:33.928Z,5.20
2019-03-19T18:07:01.137Z,5.10
2019-03-19T18:09:28.349Z,5.00
2019-03-19T18:11:55.577Z,5.00
2019-03-19T18:14:22.794Z,5.10
2019-03-19T18:16:50.093Z,5.20
2019-03-19T18:19:17.309Z,5.10
2019-03-19T18:21:44.505Z,5.10
2019-03-19T18:24:11.737Z,5.20
2019-03-19T18:26:38.962Z,5.20
2019-03-19T18:29:06.164Z,4.90
2019-03-19T18:31:33.366Z,4.80
2019-03-19T18:34:09.862Z,5.00
2019-03-19T18:36:29.692Z,5.10
2019-03-19T18:38:56.925Z,5.20
2019-03-19T18:41:24.288Z,5.20
2019-03-19T18:43:51.517Z,5.10
2019-03-19T18:46:18.708Z,5.10
2019-03-19T18:48:45.940Z,5.30
2019-03-19T18:51:13.167Z,5.30
2019-03-19T18:53:40.353Z,5.50
2019-03-19T18:56:07.552Z,5.50
2019-03-19T18:58:34.761Z,5.20
2019-03-19T19:01:01.957Z,5.40
2019-03-19T19:03:29.151Z,5.50
2019-03-19T19:05:56.385Z,5.60
2019-03-19T19:08:23.583Z,5.60
2019-03-19T19:10:50.793Z,5.70
2019-03-19T19:13:18.027Z,5.70
2019-03-19T19:15:45.421Z,5.70
2019-03-19T19:18:12.626Z,5.70
2019-03-19T19:20:39.839Z,5.40
2019-03-19T19:23:07.039Z,5.20
2019-03-19T19:25:34.241Z,5.30
2019-03-19T19:28:01.457Z,5.30
2019-03-19T19:30:28.669Z,5.30
2019-03-19T19:33:01.582Z,5.30
2019-03-19T19:35:25.010Z,5.30
2019-03-19T19:37:52.243Z,5.30
2019-03-19T19:40:19.490Z,5.00
2019-03-19T19:42:46.760Z,5.20
2019-03-19T19:45:13.997Z,5.20
2019-03-19T19:47:41.213Z,5.20
2019-03-19T19:50:10.152Z,5.20
2019-03-19T19:52:37.400Z,5.30
2019-03-19T19:55:04.661Z,5.40
2019-03-19T19:57:31.879Z,5.40
2019-03-19T20:00:01.698Z,5.40
2019-03-19T20:02:28.303Z,5.40
2019-03-19T20:05:02.890Z,5.40
2019-03-19T20:07:24.636Z,5.40
2019-03-19T20:09:51.865Z,5.30
2019-03-19T20:12:19.091Z,5.30
2019-03-19T20:14:46.285Z,5.30
2019-03-19T20:17:13.500Z,5.30
2019-03-19T20:19:40.817Z,5.20
2019-03-19T20:22:08.037Z,5.10
2019-03-19T20:24:35.269Z,5.10
2019-03-19T20:27:02.512Z,5.20
2019-03-19T20:29:29.797Z,5.20
2019-03-19T20:31:57.010Z,5.10
2019-03-19T20:34:24.210Z,4.90
2019-03-19T20:36:51.435Z,5.00
2019-03-19T20:39:18.655Z,5.20
2019-03-19T20:41:45.870Z,5.10
2019-03-19T20:44:13.182Z,5.10
2019-03-19T20:46:40.383Z,5.30
2019-03-19T20:49:07.613Z,5.30
2019-03-19T20:51:34.810Z,5.30
2019-03-19T20:54:02.034Z,5.10
2019-03-19T20:56:29.245Z,4.90
2019-03-19T20:58:56.472Z,4.80
2019-03-19T21:01:23.696Z,4.70
2019-03-19T21:03:50.949Z,4.60
2019-03-19T21:06:18.149Z,4.50
2019-03-19T21:08:45.356Z,4.50
2019-03-19T21:11:12.564Z,4.30
2019-03-19T21:13:39.796Z,4.30
2019-03-19T21:16:07.248Z,4.40
2019-03-19T21:18:34.580Z,4.30
2019-03-19T21:21:01.783Z,4.20
2019-03-19T21:23:28.980Z,4.10
2019-03-19T21:25:56.229Z,4.10
2019-03-19T21:28:23.439Z,4.00
2019-03-19T21:30:50.925Z,3.90
2019-03-19T21:33:18.165Z,3.80
2019-03-19T21:35:45.360Z,3.80
2019-03-19T21:38:12.671Z,3.60
2019-03-19T21:40:39.889Z,3.50
2019-03-19T21:43:07.112Z,3.40
2019-03-19T21:45:34.344Z,3.50
2019-03-19T21:48:01.552Z,3.30
2019-03-19T21:50:28.774Z,3.40
2019-03-19T21:52:55.972Z,3.20
2019-03-19T21:55:23.221Z,3.00
2019-03-19T21:57:50.516Z,3.00
2019-03-19T22:00:17.728Z,2.80
2019-03-19T22:02:44.928Z,2.90
2019-03-19T22:05:12.136Z,2.80
2019-03-19T22:07:39.338Z,2.70
2019-03-19T22:10:09.443Z,2.60
2019-03-19T22:12:36.641Z,2.60
2019-03-19T22:15:09.564Z,2.60
2019-03-19T22:17:36.781Z,2.50
2019-03-19T22:20:04.177Z,2.40
2019-03-19T22:22:31.385Z,2.40
2019-03-19T22:24:58.588Z,2.40
2019-03-19T22:27:25.792Z,2.30
2019-03-19T22:29:52.989Z,2.30
2019-03-19T22:32:20.196Z,2.20
2019-03-19T22:34:47.390Z,2.20
2019-03-19T22:37:14.585Z,2.10
2019-03-19T22:39:42.779Z,2.20
2019-03-19T22:42:10.250Z,2.20
2019-03-19T22:44:37.462Z,2.20
2019-03-19T22:47:04.684Z,2.10
2019-03-19T22:49:31.904Z,2.10
2019-03-19T22:51:59.113Z,2.10
2019-03-19T22:54:26.321Z,2.20
2019-03-19T22:56:53.546Z,2.20
2019-03-19T22:59:20.772Z,2.10
2019-03-19T23:01:47.995Z,2.20
2019-03-19T23:04:15.285Z,2.10
2019-03-19T23:06:42.496Z,2.00
2019-03-19T23:09:09.712Z,1.80
2019-03-19T23:11:36.933Z,1.70
2019-03-19T23:14:04.241Z,1.70
2019-03-19T23:16:31.457Z,1.70
2019-03-19T23:18:58.645Z,1.80
2019-03-19T23:21:25.853Z,1.70
2019-03-19T23:23:53.065Z,1.60
2019-03-19T23:26:20.285Z,1.60
2019-03-19T23:28:47.515Z,1.50
2019-03-19T23:31:14.728Z,1.50
2019-03-19T23:33:41.936Z,1.40
2019-03-19T23:36:09.141Z,1.50
2019-03-19T23:38:36.357Z,1.40
2019-03-19T23:41:03.579Z,1.30
2019-03-19T23:43:30.785Z,1.40
2019-03-19T23:45:57.998Z,1.30
2019-03-19T23:48:25.225Z,1.30
2019-03-19T23:50:52.601Z,1.30
2019-03-19T23:53:19.805Z,1.20
2019-03-19T23:55:47.108Z,1.10
2019-03-19T23:58:14.677Z,1.00
